Time;durP1;ratioP1;P1;durP2;ratioP2;P2;SDS_P1;SDS_P2;PMS_P1;PMS_P2;Temp;Humidity;BMP_temperature;BMP_pressure;BME280_temperature;BME280_humidity;BME280_pressure;Samples;Min_cycle;Max_cycle;Signal;HPM_P1;HPM_P2
2023/12/10 05:47:04;;;;;;;25.35;4.57;;;;;;;7.99;100.00;99596.25;5425601;24;20058;-74
2023/12/10 05:49:29;;;;;;;25.50;4.47;;;;;;;8.01;100.00;99591.06;4804982;29;20038;-75
2023/12/10 05:51:55;;;;;;;23.60;4.68;;;;;;;7.98;100.00;99595.44;4812431;29;20406;-74
2023/12/10 05:54:20;;;;;;;19.10;4.00;;;;;;;7.98;100.00;99611.38;4812055;29;20083;-74
2023/12/10 05:56:46;;;;;;;23.73;4.30;;;;;;;7.95;100.00;99593.47;4813238;29;20258;-76
2023/12/10 05:59:11;;;;;;;31.42;4.65;;;;;;;7.99;100.00;99616.56;4810530;29;20048;-74
2023/12/10 06:01:36;;;;;;;21.73;4.68;;;;;;;7.98;100.00;99625.31;4813774;29;20790;-75
2023/12/10 06:04:02;;;;;;;16.40;4.15;;;;;;;7.96;100.00;99625.69;4809022;29;20044;-75
2023/12/10 06:06:27;;;;;;;13.48;3.67;;;;;;;7.98;100.00;99637.25;4820393;29;20032;-75
2023/12/10 06:08:53;;;;;;;26.00;4.72;;;;;;;8.04;100.00;99648.84;4812044;29;20449;-75
2023/12/10 06:11:18;;;;;;;28.25;5.10;;;;;;;8.07;100.00;99651.63;4806995;29;20030;-75
2023/12/10 06:13:43;;;;;;;25.65;5.35;;;;;;;8.16;100.00;99668.00;4815788;29;20042;-74
2023/12/10 06:16:09;;;;;;;32.72;5.72;;;;;;;8.12;100.00;99673.56;4810961;29;20038;-74
2023/12/10 06:18:34;;;;;;;18.95;4.55;;;;;;;8.17;100.00;99674.38;4810188;29;20056;-75
2023/12/10 06:20:59;;;;;;;28.17;5.30;;;;;;;8.11;100.00;99690.66;4807839;29;20038;-75
2023/12/10 06:23:25;;;;;;;19.02;4.88;;;;;;;8.13;100.00;99697.44;4815125;29;20459;-74
2023/12/10 06:25:50;;;;;;;21.38;4.88;;;;;;;8.18;100.00;99706.63;4810722;29;20033;-74
2023/12/10 06:28:16;;;;;;;19.58;3.63;;;;;;;8.24;100.00;99714.25;4810463;29;20030;-75
2023/12/10 06:30:41;;;;;;;17.67;4.68;;;;;;;8.25;100.00;99713.03;4808637;29;20023;-75
2023/12/10 06:33:07;;;;;;;21.02;4.47;;;;;;;8.17;100.00;99713.41;4815122;29;20042;-74
2023/12/10 06:35:32;;;;;;;18.60;4.05;;;;;;;8.14;100.00;99731.72;4813503;29;20045;-75
2023/12/10 06:37:58;;;;;;;32.47;5.60;;;;;;;8.16;100.00;99737.69;4814611;29;20042;-75
2023/12/10 06:40:23;;;;;;;20.17;4.43;;;;;;;8.14;100.00;99742.84;4811748;29;20125;-75
2023/12/10 06:42:49;;;;;;;17.90;3.95;;;;;;;8.09;100.00;99746.78;4811341;29;20212;-74
2023/12/10 06:45:14;;;;;;;24.77;4.10;;;;;;;8.08;100.00;99764.72;4805291;29;20034;-74
2023/12/10 06:47:40;;;;;;;16.30;3.33;;;;;;;8.13;100.00;99757.97;4807928;29;20058;-74
2023/12/10 06:50:06;;;;;;;21.25;5.57;;;;;;;8.10;100.00;99769.91;4794606;29;20031;-74
2023/12/10 06:52:32;;;;;;;19.90;5.05;;;;;;;8.16;100.00;99779.50;4789247;29;20026;-74
2023/12/10 06:54:57;;;;;;;27.95;4.50;;;;;;;8.19;100.00;99787.06;4796133;29;20026;-74
2023/12/10 06:57:23;;;;;;;16.05;4.25;;;;;;;8.09;100.00;99801.72;4797600;29;20043;-74
2023/12/10 06:59:48;;;;;;;26.08;4.43;;;;;;;8.10;100.00;99804.13;4794841;29;20121;-72
2023/12/10 07:02:14;;;;;;;18.13;4.00;;;;;;;8.16;100.00;99810.16;4789401;29;20064;-71
2023/12/10 07:04:39;;;;;;;15.55;4.93;;;;;;;8.00;100.00;99818.00;4791925;29;20030;-72
2023/12/10 07:07:05;;;;;;;22.38;4.88;;;;;;;8.04;100.00;99827.97;4792634;29;20164;-73
2023/12/10 07:09:30;;;;;;;18.42;4.40;;;;;;;8.07;100.00;99827.19;4791665;29;20807;-72
2023/12/10 07:11:55;;;;;;;20.10;4.07;;;;;;;8.09;100.00;99835.19;4790889;29;20026;-72
2023/12/10 07:14:21;;;;;;;22.23;4.07;;;;;;;8.04;100.00;99827.19;4788002;29;20034;-72
2023/12/10 07:16:46;;;;;;;21.85;4.55;;;;;;;7.96;100.00;99842.25;4786796;29;20083;-74
2023/12/10 07:19:12;;;;;;;19.70;5.07;;;;;;;7.94;100.00;99843.41;4790324;29;20023;-73
2023/12/10 07:21:37;;;;;;;21.80;4.07;;;;;;;8.02;100.00;99830.34;4793081;29;20432;-73
2023/12/10 07:24:03;;;;;;;30.38;5.78;;;;;;;8.03;100.00;99845.09;4790951;29;20035;-75
2023/12/10 07:26:29;;;;;;;25.48;5.57;;;;;;;7.98;100.00;99851.81;4792907;29;20039;-73
2023/12/10 07:28:54;;;;;;;20.88;4.00;;;;;;;7.98;100.00;99859.38;4787141;29;20047;-75
2023/12/10 07:31:19;;;;;;;23.50;5.10;;;;;;;7.99;100.00;99863.75;4793388;29;20035;-74
2023/12/10 07:33:45;;;;;;;29.48;7.03;;;;;;;8.02;100.00;99863.00;4789980;29;20039;-74
2023/12/10 07:36:11;;;;;;;18.70;5.15;;;;;;;8.02;100.00;99872.16;4794496;29;20039;-73
2023/12/10 07:38:37;;;;;;;21.98;3.95;;;;;;;8.02;100.00;99874.16;4792159;29;20038;-73
2023/12/10 07:41:04;;;;;;;28.85;4.55;;;;;;;8.06;100.00;99880.56;4789105;29;20042;-76
2023/12/10 07:43:30;;;;;;;31.30;6.07;;;;;;;7.97;100.00;99882.84;4791252;29;20129;-73
2023/12/10 07:45:56;;;;;;;15.23;3.58;;;;;;;8.02;100.00;99890.88;4790113;29;20054;-73
2023/12/10 07:48:22;;;;;;;21.52;4.25;;;;;;;8.05;100.00;99884.50;4791305;29;20147;-73
2023/12/10 07:50:47;;;;;;;23.45;4.40;;;;;;;8.06;100.00;99902.84;4790181;29;20054;-72
2023/12/10 07:53:13;;;;;;;29.27;5.30;;;;;;;8.04;100.00;99905.22;4790467;29;20042;-73
2023/12/10 07:55:38;;;;;;;20.85;4.45;;;;;;;8.05;100.00;99902.06;4794197;29;20075;-73
2023/12/10 07:58:04;;;;;;;28.10;6.22;;;;;;;8.09;100.00;99913.22;4798551;29;20528;-73
2023/12/10 08:00:29;;;;;;;26.95;4.47;;;;;;;8.09;100.00;99913.22;4793009;29;20191;-74
2023/12/10 08:02:55;;;;;;;33.67;6.38;;;;;;;8.04;100.00;99916.38;4793554;29;20070;-73
2023/12/10 08:05:20;;;;;;;25.92;5.30;;;;;;;8.11;100.00;99933.94;4792923;29;20092;-73
2023/12/10 08:07:46;;;;;;;18.73;3.97;;;;;;;8.18;100.00;99927.66;4793444;29;20035;-76
2023/12/10 08:10:11;;;;;;;20.50;3.75;;;;;;;8.14;100.00;99937.97;4794586;29;20130;-76
2023/12/10 08:12:36;;;;;;;31.38;4.93;;;;;;;8.04;100.00;99944.25;4789938;29;20065;-75
2023/12/10 08:15:02;;;;;;;23.83;4.22;;;;;;;8.12;100.00;99957.84;4796365;29;20035;-76
2023/12/10 08:17:28;;;;;;;20.27;3.83;;;;;;;8.04;100.00;99964.53;4799019;29;20550;-76
2023/12/10 08:19:53;;;;;;;20.33;5.47;;;;;;;8.08;100.00;99967.38;4794904;29;20642;-75
2023/12/10 08:22:19;;;;;;;32.72;5.47;;;;;;;8.24;100.00;99979.09;4792405;29;20488;-76
2023/12/10 08:24:44;;;;;;;24.08;4.32;;;;;;;8.25;100.00;99999.41;4799019;29;20124;-76
2023/12/10 08:27:10;;;;;;;19.63;4.93;;;;;;;8.18;100.00;100000.13;4796629;29;20057;-76
2023/12/10 08:29:35;;;;;;;22.83;4.53;;;;;;;8.30;100.00;100008.19;4790223;29;20480;-76
2023/12/10 08:32:01;;;;;;;19.08;4.40;;;;;;;8.27;100.00;100025.69;4788959;29;20104;-76
2023/12/10 08:34:26;;;;;;;22.70;4.57;;;;;;;8.21;100.00;100021.66;4795759;29;20535;-76
2023/12/10 08:36:52;;;;;;;21.95;4.82;;;;;;;8.19;100.00;100040.75;4790696;29;20038;-75
2023/12/10 08:39:17;;;;;;;23.73;4.78;;;;;;;8.27;100.00;100030.47;4798717;29;20046;-76
2023/12/10 08:41:42;;;;;;;12.98;4.78;;;;;;;8.22;100.00;100040.00;4801694;29;20463;-76
2023/12/10 08:44:08;;;;;;;18.40;4.20;;;;;;;8.15;100.00;100040.69;4796556;29;20035;-75
2023/12/10 08:46:33;;;;;;;23.83;5.60;;;;;;;8.17;100.00;100048.69;4796469;29;20058;-75
2023/12/10 08:48:59;;;;;;;16.27;3.90;;;;;;;8.17;100.00;100029.19;4796735;29;20114;-76
2023/12/10 08:51:25;;;;;;;37.15;5.78;;;;;;;8.08;100.00;100048.19;4800735;29;20062;-75
2023/12/10 08:53:51;;;;;;;22.50;4.75;;;;;;;8.14;100.00;100043.91;4795942;29;20110;-76
2023/12/10 08:56:16;;;;;;;28.60;5.50;;;;;;;8.10;100.00;100051.41;4797049;29;20102;-76
2023/12/10 08:58:42;;;;;;;23.65;5.57;;;;;;;8.17;100.00;100064.63;4793220;29;20038;-76
2023/12/10 09:01:07;;;;;;;25.25;5.25;;;;;;;8.16;100.00;100052.69;4794229;29;20043;-76
2023/12/10 09:03:32;;;;;;;21.50;4.30;;;;;;;8.21;100.00;100057.91;4797826;29;20042;-74
2023/12/10 09:05:58;;;;;;;23.08;4.78;;;;;;;8.14;100.00;100060.63;4792372;29;20649;-75
2023/12/10 09:08:26;;;;;;;23.58;5.00;;;;;;;8.11;100.00;100067.72;4798912;29;20048;-75
2023/12/10 09:10:52;;;;;;;24.52;4.65;;;;;;;8.07;100.00;100060.53;4789667;29;20038;-74
2023/12/10 09:13:17;;;;;;;23.83;4.72;;;;;;;8.12;100.00;100058.19;4791779;29;20575;-74
2023/12/10 09:15:43;;;;;;;31.80;5.57;;;;;;;8.04;100.00;100067.66;4796202;29;20056;-74
2023/12/10 09:18:09;;;;;;;24.90;4.82;;;;;;;8.07;100.00;100072.47;4795449;29;20074;-74
2023/12/10 09:20:35;;;;;;;19.83;3.72;;;;;;;8.08;100.00;100085.22;4802378;29;20106;-74
2023/12/10 09:23:01;;;;;;;20.38;4.32;;;;;;;8.08;100.00;100079.66;4790003;29;20451;-74
2023/12/10 09:25:26;;;;;;;17.05;3.80;;;;;;;8.08;100.00;100096.38;4800102;29;20130;-74
2023/12/10 09:27:51;;;;;;;21.50;4.00;;;;;;;8.07;100.00;100100.34;4791514;29;20288;-74
2023/12/10 09:30:17;;;;;;;20.92;4.82;;;;;;;8.08;100.00;100101.16;4797369;29;20039;-75
2023/12/10 09:32:42;;;;;;;17.15;4.57;;;;;;;8.12;100.00;100124.31;4792168;29;20031;-74
2023/12/10 09:35:08;;;;;;;22.02;4.72;;;;;;;8.17;100.00;100149.03;4796952;29;20034;-74
2023/12/10 09:37:33;;;;;;;17.50;5.18;;;;;;;8.21;100.00;100143.53;4793165;29;20117;-74
2023/12/10 09:39:59;;;;;;;19.38;3.63;;;;;;;8.19;100.00;100149.47;4802187;29;20038;-74
2023/12/10 09:42:24;;;;;;;21.02;4.00;;;;;;;8.18;100.00;100158.22;4798530;29;20039;-74
2023/12/10 09:44:49;;;;;;;27.98;6.20;;;;;;;8.12;100.00;100171.69;4790446;29;20031;-74
2023/12/10 09:47:16;;;;;;;26.40;4.18;;;;;;;8.13;100.00;100176.88;4796698;29;20043;-74
2023/12/10 09:49:42;;;;;;;21.60;4.30;;;;;;;8.17;100.00;100176.94;4796010;29;20072;-74
2023/12/10 09:52:09;;;;;;;22.92;4.20;;;;;;;8.18;100.00;100184.13;4801778;29;20039;-74
2023/12/10 09:54:39;;;;;;;17.77;3.97;;;;;;;8.15;100.00;100185.66;4797993;29;20038;-74
2023/12/10 09:57:05;;;;;;;20.27;3.80;;;;;;;8.17;100.00;100188.06;4793079;29;20491;-74
2023/12/10 09:59:31;;;;;;;32.30;4.88;;;;;;;8.20;100.00;100190.13;4797038;29;20061;-74
2023/12/10 10:01:57;;;;;;;16.38;3.13;;;;;;;8.21;100.00;100188.94;4793222;29;20516;-74
2023/12/10 10:04:23;;;;;;;21.38;4.88;;;;;;;8.21;100.00;100202.06;4798039;29;20046;-74
2023/12/10 10:06:48;;;;;;;12.88;3.03;;;;;;;8.25;100.00;100194.56;4798236;29;20487;-74
2023/12/10 10:09:14;;;;;;;19.50;4.78;;;;;;;8.27;100.00;100190.19;4794633;29;20035;-74
2023/12/10 10:11:40;;;;;;;18.42;4.90;;;;;;;8.29;100.00;100190.63;4789140;29;20592;-74
2023/12/10 10:14:06;;;;;;;12.02;4.07;;;;;;;8.39;100.00;100199.50;4789890;29;20027;-74
2023/12/10 10:16:31;;;;;;;24.50;4.05;;;;;;;8.32;100.00;100195.44;4793014;29;20488;-75
2023/12/10 10:18:59;;;;;;;17.33;3.47;;;;;;;8.34;100.00;100209.00;4791241;29;20419;-74
2023/12/10 10:21:24;;;;;;;17.38;4.45;;;;;;;8.37;100.00;100201.84;4806158;29;20375;-74
2023/12/10 10:23:50;;;;;;;15.57;3.55;;;;;;;8.35;100.00;100194.69;4796534;29;20043;-75
2023/12/10 10:26:15;;;;;;;34.38;4.80;;;;;;;8.42;100.00;100213.53;4796152;29;20027;-74
2023/12/10 10:28:41;;;;;;;14.65;3.90;;;;;;;8.40;100.00;100201.13;4798593;29;20031;-74
2023/12/10 10:31:09;;;;;;;15.75;3.65;;;;;;;8.52;100.00;100203.69;4799503;29;20030;-74
2023/12/10 10:33:35;;;;;;;23.70;4.72;;;;;;;8.54;100.00;100207.69;4801781;29;20041;-74
2023/12/10 10:36:02;;;;;;;24.40;5.72;;;;;;;8.45;100.00;100203.59;4801326;29;20023;-74
2023/12/10 10:38:29;;;;;;;11.32;3.15;;;;;;;8.62;100.00;100214.16;4802361;29;20060;-74
2023/12/10 10:40:57;;;;;;;21.95;3.75;;;;;;;8.53;100.00;100222.81;4801874;29;20509;-74
2023/12/10 10:43:22;;;;;;;20.23;3.35;;;;;;;8.56;100.00;100215.69;4797298;29;20030;-74
2023/12/10 10:45:47;;;;;;;12.38;4.13;;;;;;;8.51;100.00;100219.59;4795323;29;20035;-74
2023/12/10 10:48:13;;;;;;;13.57;3.60;;;;;;;8.50;100.00;100229.16;4801305;29;20051;-75
2023/12/10 10:50:39;;;;;;;12.75;3.85;;;;;;;8.52;100.00;100221.22;4795922;29;20041;-76
2023/12/10 10:53:06;;;;;;;23.23;4.88;;;;;;;8.48;100.00;100230.72;4793010;29;20062;-76
2023/12/10 10:55:32;;;;;;;30.48;5.30;;;;;;;8.48;100.00;100231.53;4787874;29;20035;-75
2023/12/10 10:57:58;;;;;;;20.00;4.07;;;;;;;8.51;100.00;100214.03;4793489;29;20042;-76
2023/12/10 11:00:23;;;;;;;17.35;4.25;;;;;;;8.56;100.00;100235.22;4791914;29;20424;-75
2023/12/10 11:03:02;;;;;;;18.63;3.33;;;;;;;8.60;100.00;100238.84;4793351;29;20077;-76
2023/12/10 11:05:32;;;;;;;13.82;3.58;;;;;;;8.60;100.00;100243.59;4794720;29;20070;-75
2023/12/10 11:07:58;;;;;;;8.45;2.65;;;;;;;8.62;100.00;100241.25;4790649;29;20034;-75
2023/12/10 11:10:24;;;;;;;13.57;2.67;;;;;;;8.59;100.00;100247.59;4795468;29;20541;-75
2023/12/10 11:12:51;;;;;;;11.43;2.95;;;;;;;8.60;100.00;100255.59;4794737;29;20038;-75
2023/12/10 11:15:16;;;;;;;21.20;3.35;;;;;;;8.56;100.00;100238.00;4795192;29;20034;-75
2023/12/10 11:18:08;;;;;;;19.80;4.05;;;;;;;8.60;100.00;100250.00;4796453;29;20110;-76
2023/12/10 11:20:38;;;;;;;17.50;3.78;;;;;;;8.63;100.00;100248.44;4793583;29;20042;-76
2023/12/10 11:23:05;;;;;;;12.43;2.78;;;;;;;8.64;100.00;100234.09;4793389;29;20030;-75
2023/12/10 11:25:31;;;;;;;18.80;4.20;;;;;;;8.69;100.00;100249.72;4798165;29;20395;-76
2023/12/10 11:27:59;;;;;;;19.25;3.33;;;;;;;8.66;100.00;100242.09;4797008;29;20031;-76
2023/12/10 11:30:25;;;;;;;13.98;2.25;;;;;;;8.67;100.00;100244.50;4793780;29;20107;-76
2023/12/10 11:32:51;;;;;;;15.45;3.17;;;;;;;8.64;100.00;100242.47;4795378;29;20035;-76
2023/12/10 11:35:17;;;;;;;17.42;3.40;;;;;;;8.66;100.00;100237.31;4795685;29;20381;-75
2023/12/10 11:37:43;;;;;;;8.23;2.50;;;;;;;9.17;100.00;100255.44;4793513;29;20033;-75
2023/12/10 11:40:09;;;;;;;11.98;4.13;;;;;;;8.77;100.00;100237.47;4794132;29;20039;-75
2023/12/10 11:42:35;;;;;;;18.05;3.03;;;;;;;8.77;100.00;100239.41;4797834;29;20514;-75
2023/12/10 11:45:00;;;;;;;12.50;3.40;;;;;;;8.72;100.00;100227.41;4788814;29;20046;-75
2023/12/10 11:47:26;;;;;;;16.85;4.57;;;;;;;8.68;100.00;100234.94;4795193;29;20063;-75
2023/12/10 11:49:54;;;;;;;7.65;2.92;;;;;;;8.71;100.00;100227.81;4792567;29;20030;-75
2023/12/10 11:52:19;;;;;;;15.10;2.72;;;;;;;8.74;100.00;100239.00;4799976;29;20444;-75
2023/12/10 11:54:45;;;;;;;11.02;2.28;;;;;;;8.78;100.00;100233.47;4796384;29;20129;-75
2023/12/10 11:57:10;;;;;;;18.65;3.83;;;;;;;8.69;100.00;100246.94;4797077;29;20034;-74
2023/12/10 11:59:36;;;;;;;14.05;3.17;;;;;;;8.75;100.00;100235.03;4796028;29;20042;-74
2023/12/10 12:02:02;;;;;;;18.08;2.65;;;;;;;8.78;100.00;100249.41;4790550;29;20516;-74
2023/12/10 12:04:28;;;;;;;15.38;3.42;;;;;;;8.74;100.00;100255.75;4795790;29;20042;-74
2023/12/10 12:06:53;;;;;;;11.75;3.10;;;;;;;8.93;100.00;100251.16;4792234;29;20047;-74
2023/12/10 12:09:22;;;;;;;19.95;3.75;;;;;;;8.80;100.00;100255.41;4797488;29;20034;-74
2023/12/10 12:11:51;;;;;;;13.73;2.90;;;;;;;8.77;100.00;100261.75;4792346;29;20046;-74
2023/12/10 12:14:17;;;;;;;12.43;2.60;;;;;;;8.78;100.00;100257.78;4798255;29;20046;-74
2023/12/10 12:16:43;;;;;;;14.82;3.17;;;;;;;8.72;100.00;100272.06;4790844;29;20049;-74
2023/12/10 12:19:08;;;;;;;8.73;2.58;;;;;;;8.74;100.00;100269.69;4806640;29;20446;-74
2023/12/10 12:21:34;;;;;;;19.73;5.13;;;;;;;8.77;100.00;100264.53;4795937;29;20034;-74
2023/12/10 12:23:59;;;;;;;13.48;3.55;;;;;;;8.74;100.00;100266.09;4798739;29;20121;-74
2023/12/10 12:26:25;;;;;;;15.00;3.13;;;;;;;8.68;100.00;100260.06;4795322;29;20556;-74
2023/12/10 12:28:50;;;;;;;20.20;3.83;;;;;;;8.61;100.00;100246.03;4793988;29;20125;-74
2023/12/10 12:31:16;;;;;;;11.25;2.70;;;;;;;8.59;100.00;100253.19;4789073;29;20055;-74
2023/12/10 12:33:41;;;;;;;19.10;2.80;;;;;;;8.69;100.00;100253.31;4795440;29;20549;-74
2023/12/10 12:36:07;;;;;;;15.43;2.90;;;;;;;8.76;100.00;100247.00;4796356;29;20035;-74
2023/12/10 12:38:33;;;;;;;12.30;3.20;;;;;;;8.80;100.00;100250.63;4793101;29;20042;-74
2023/12/10 12:40:58;;;;;;;16.13;3.88;;;;;;;8.67;100.00;100252.09;4794912;29;20038;-74
2023/12/10 12:43:23;;;;;;;16.65;2.38;;;;;;;8.67;100.00;100257.66;4790222;29;20096;-75
2023/12/10 12:45:49;;;;;;;17.83;3.00;;;;;;;8.69;100.00;100253.31;4797527;29;20027;-74
2023/12/10 12:48:14;;;;;;;18.17;3.20;;;;;;;8.71;100.00;100255.72;4791757;29;20129;-75
2023/12/10 12:50:40;;;;;;;11.68;2.60;;;;;;;8.75;100.00;100248.19;4793090;29;20118;-74
2023/12/10 12:53:05;;;;;;;11.02;3.53;;;;;;;8.76;100.00;100247.00;4797523;29;20643;-75
2023/12/10 12:55:31;;;;;;;18.13;2.75;;;;;;;8.75;100.00;100245.41;4793180;29;22795;-74
2023/12/10 12:57:56;;;;;;;10.88;2.50;;;;;;;8.72;100.00;100246.94;4794480;29;20467;-75
2023/12/10 13:00:22;;;;;;;12.23;3.38;;;;;;;8.77;100.00;100254.19;4793049;29;20167;-74
2023/12/10 13:02:47;;;;;;;12.85;3.13;;;;;;;8.75;100.00;100256.56;4794210;29;20065;-75
2023/12/10 13:05:13;;;;;;;14.32;2.92;;;;;;;8.75;100.00;100240.63;4793686;29;20039;-75
2023/12/10 13:07:40;;;;;;;14.32;2.47;;;;;;;8.77;100.00;100250.59;4800304;29;20043;-75
2023/12/10 13:10:07;;;;;;;14.48;2.85;;;;;;;8.73;100.00;100248.56;4795800;29;20086;-75
2023/12/10 13:12:33;;;;;;;13.93;2.80;;;;;;;8.79;100.00;100245.44;4792309;29;20035;-75
2023/12/10 13:14:58;;;;;;;12.57;3.42;;;;;;;8.73;100.00;100239.41;4795430;29;21047;-76
2023/12/10 13:17:24;;;;;;;21.67;3.22;;;;;;;8.86;100.00;100237.16;4795535;29;20038;-75
2023/12/10 13:19:50;;;;;;;9.10;2.42;;;;;;;8.77;100.00;100248.63;4799736;29;20038;-75
2023/12/10 13:22:15;;;;;;;7.25;2.90;;;;;;;8.86;100.00;100249.09;4792684;29;20092;-75
2023/12/10 13:24:41;;;;;;;14.10;3.30;;;;;;;8.77;100.00;100248.63;4788564;29;20046;-75
2023/12/10 13:27:06;;;;;;;12.07;2.22;;;;;;;8.83;100.00;100243.47;4791083;29;20035;-75
2023/12/10 13:29:32;;;;;;;17.00;3.30;;;;;;;8.69;100.00;100235.75;4798394;29;20065;-75
2023/12/10 13:31:57;;;;;;;8.10;2.58;;;;;;;8.66;100.00;100220.56;4798669;29;20078;-75
2023/12/10 13:34:22;;;;;;;17.73;2.88;;;;;;;8.63;100.00;100209.38;4798503;29;20042;-75
2023/12/10 13:36:48;;;;;;;12.00;2.92;;;;;;;8.70;100.00;100218.63;4795815;29;20096;-75
2023/12/10 13:39:13;;;;;;;17.20;2.42;;;;;;;8.67;100.00;100210.22;4800647;29;20067;-75
2023/12/10 13:41:39;;;;;;;11.70;2.13;;;;;;;8.68;100.00;100217.41;4794364;29;20035;-75
2023/12/10 13:44:05;;;;;;;13.82;3.60;;;;;;;8.69;100.00;100205.88;4794902;29;20042;-75
2023/12/10 13:46:30;;;;;;;14.18;2.90;;;;;;;8.61;100.00;100220.13;4796824;29;20030;-75
2023/12/10 13:48:55;;;;;;;13.35;2.25;;;;;;;8.60;100.00;100219.31;4794073;29;20035;-75
2023/12/10 13:51:21;;;;;;;15.40;5.30;;;;;;;8.55;100.00;100214.88;4798276;29;20041;-76
2023/12/10 13:53:46;;;;;;;11.98;2.45;;;;;;;8.60;100.00;100213.75;4800856;29;20075;-75
2023/12/10 13:56:12;;;;;;;14.20;3.15;;;;;;;8.55;100.00;100225.22;4799446;29;20043;-75
2023/12/10 13:58:38;;;;;;;20.05;3.60;;;;;;;8.87;100.00;100227.56;4790578;29;20050;-75
2023/12/10 14:01:03;;;;;;;14.90;2.65;;;;;;;8.63;100.00;100223.34;4796544;29;20500;-75
2023/12/10 14:03:29;;;;;;;11.90;2.47;;;;;;;8.64;100.00;100219.34;4798070;29;20031;-75
2023/12/10 14:05:55;;;;;;;13.05;2.85;;;;;;;8.72;100.00;100210.66;4789348;29;20031;-75
2023/12/10 14:08:20;;;;;;;26.77;3.42;;;;;;;8.64;100.00;100220.13;4797402;29;20397;-75
2023/12/10 14:10:46;;;;;;;15.70;3.35;;;;;;;8.54;100.00;100218.06;4793104;29;20043;-75
2023/12/10 14:13:11;;;;;;;12.95;4.03;;;;;;;8.57;100.00;100222.84;4792370;29;20042;-75
2023/12/10 14:15:37;;;;;;;14.35;3.40;;;;;;;8.60;100.00;100215.72;4796808;29;20160;-75
2023/12/10 14:18:03;;;;;;;15.45;3.08;;;;;;;8.64;100.00;100205.41;4791949;29;20073;-74
2023/12/10 14:20:28;;;;;;;19.98;3.65;;;;;;;8.60;100.00;100198.97;4790838;29;20050;-75
2023/12/10 14:22:54;;;;;;;15.88;3.10;;;;;;;8.67;100.00;100205.44;4795840;29;20065;-75
2023/12/10 14:25:19;;;;;;;12.65;2.90;;;;;;;8.68;100.00;100186.72;4797366;29;20039;-75
2023/12/10 14:27:46;;;;;;;27.88;4.93;;;;;;;8.70;100.00;100167.59;4793677;29;20496;-75
2023/12/10 14:30:12;;;;;;;19.73;4.47;;;;;;;8.71;100.00;100160.84;4780893;29;20034;-75
2023/12/10 14:32:37;;;;;;;15.68;2.97;;;;;;;8.79;100.00;100161.72;4792745;29;20041;-74
2023/12/10 14:35:03;;;;;;;10.52;2.38;;;;;;;8.79;100.00;100161.72;4792825;29;20049;-74
2023/12/10 14:37:28;;;;;;;7.63;3.05;;;;;;;8.73;100.00;100159.28;4795542;29;20100;-76
2023/12/10 14:39:54;;;;;;;14.15;3.35;;;;;;;8.71;100.00;100149.69;4794462;29;20030;-76
2023/12/10 14:42:19;;;;;;;11.73;3.08;;;;;;;8.72;100.00;100146.50;4797880;29;20034;-76
2023/12/10 14:44:45;;;;;;;24.38;3.60;;;;;;;8.67;100.00;100135.69;4790360;29;20386;-76
2023/12/10 14:47:10;;;;;;;16.15;4.35;;;;;;;8.61;100.00;100128.84;4788329;29;20078;-74
2023/12/10 14:49:36;;;;;;;16.50;3.33;;;;;;;8.58;100.00;100124.06;4795316;29;20411;-75
2023/12/10 14:52:01;;;;;;;16.13;3.92;;;;;;;8.66;100.00;100136.06;4796199;29;20479;-75
2023/12/10 14:54:27;;;;;;;9.10;2.70;;;;;;;8.68;100.00;100123.34;4796481;29;20476;-74
2023/12/10 14:56:52;;;;;;;13.43;3.53;;;;;;;8.67;100.00;100123.75;4804795;29;20095;-75
2023/12/10 14:59:18;;;;;;;15.55;3.38;;;;;;;8.66;100.00;100120.13;4794551;29;20035;-75
2023/12/10 15:01:44;;;;;;;18.02;3.17;;;;;;;8.62;100.00;100112.91;4794837;29;20042;-75
2023/12/10 15:04:09;;;;;;;14.18;3.58;;;;;;;8.57;100.00;100108.50;4796579;29;20479;-75
2023/12/10 15:06:34;;;;;;;17.63;4.15;;;;;;;8.62;100.00;100091.41;4793351;29;20045;-75
2023/12/10 15:09:02;;;;;;;18.23;5.35;;;;;;;8.66;100.00;100081.06;4800685;29;20034;-75
2023/12/10 15:11:27;;;;;;;12.82;3.45;;;;;;;8.68;100.00;100078.69;4799795;29;20069;-75
2023/12/10 15:13:53;;;;;;;14.50;3.40;;;;;;;8.63;100.00;100076.28;4795282;29;20109;-75
2023/12/10 15:16:20;;;;;;;15.68;4.45;;;;;;;8.63;100.00;100065.13;4793186;29;20039;-75
2023/12/10 15:18:45;;;;;;;15.70;3.92;;;;;;;8.68;100.00;100061.16;4791656;29;20071;-75
2023/12/10 15:21:11;;;;;;;13.48;3.45;;;;;;;8.72;100.00;100057.22;4793877;29;20476;-75
2023/12/10 15:23:37;;;;;;;16.23;3.92;;;;;;;8.74;100.00;100054.84;4805245;29;20551;-75
2023/12/10 15:26:02;;;;;;;15.30;4.43;;;;;;;8.79;100.00;100055.69;4797748;29;20035;-75
2023/12/10 15:28:28;;;;;;;27.08;5.75;;;;;;;8.80;100.00;100046.13;4789928;29;20417;-74
2023/12/10 15:30:53;;;;;;;13.77;4.28;;;;;;;8.78;100.00;100026.19;4797132;29;20046;-74
2023/12/10 15:33:19;;;;;;;14.18;6.07;;;;;;;8.78;100.00;100040.94;4796414;29;20535;-74
2023/12/10 15:35:44;;;;;;;20.88;5.32;;;;;;;8.72;100.00;100040.47;4793565;29;20487;-74
2023/12/10 15:38:10;;;;;;;21.77;5.53;;;;;;;8.84;100.00;100052.53;4789324;29;20124;-74
2023/12/10 15:40:35;;;;;;;10.32;3.85;;;;;;;9.10;100.00;100043.94;4790720;29;20035;-73
2023/12/10 15:43:02;;;;;;;23.50;5.40;;;;;;;8.93;100.00;100033.47;4790033;29;20054;-73
2023/12/10 15:45:28;;;;;;;13.70;5.55;;;;;;;8.89;100.00;100027.84;4791149;29;20034;-74
2023/12/10 15:47:53;;;;;;;22.70;7.55;;;;;;;8.86;100.00;100027.84;4792001;29;20048;-73
2023/12/10 15:50:18;;;;;;;20.40;6.10;;;;;;;8.88;100.00;100014.31;4791245;29;20041;-74
2023/12/10 15:52:44;;;;;;;22.15;6.70;;;;;;;8.85;100.00;100013.06;4788137;29;20039;-74
2023/12/10 15:55:09;;;;;;;25.35;6.65;;;;;;;8.82;100.00;100004.69;4794951;29;20030;-74
2023/12/10 15:57:37;;;;;;;20.20;5.57;;;;;;;8.82;100.00;99987.94;4790913;29;20480;-75
2023/12/10 16:00:06;;;;;;;31.70;7.57;;;;;;;8.80;100.00;99976.38;4786829;29;20045;-75
2023/12/10 16:02:31;;;;;;;30.95;5.38;;;;;;;8.78;100.00;99976.75;4792713;29;20049;-74
2023/12/10 16:04:58;;;;;;;23.67;8.27;;;;;;;8.74;100.00;99970.34;4791527;29;20508;-74
2023/12/10 16:07:23;;;;;;;42.42;11.98;;;;;;;8.81;100.00;99958.44;4792269;29;20052;-75
2023/12/10 16:09:48;;;;;;;27.42;6.82;;;;;;;8.82;100.00;99954.47;4794888;29;20035;-74
2023/12/10 16:12:14;;;;;;;25.17;7.10;;;;;;;8.82;100.00;99932.13;4789914;29;20130;-74
2023/12/10 16:14:40;;;;;;;26.95;7.40;;;;;;;8.81;100.00;99945.25;4792429;29;20043;-74
2023/12/10 16:17:09;;;;;;;34.00;9.70;;;;;;;8.87;100.00;99934.53;4795326;29;20042;-75
2023/12/10 16:19:35;;;;;;;35.00;15.13;;;;;;;8.85;100.00;99914.59;4793394;29;20467;-74
2023/12/10 16:22:01;;;;;;;28.77;9.02;;;;;;;8.86;100.00;99907.84;4792136;29;20071;-75
2023/12/10 16:24:26;;;;;;;21.23;7.28;;;;;;;8.85;100.00;99895.06;4795983;29;20035;-75
2023/12/10 16:26:51;;;;;;;24.50;7.15;;;;;;;8.91;100.00;99879.56;4790849;29;20034;-74
2023/12/10 16:29:17;;;;;;;23.08;6.60;;;;;;;8.91;100.00;99871.97;4794180;29;20050;-74
2023/12/10 16:31:42;;;;;;;19.80;6.22;;;;;;;8.88;100.00;99886.72;4792222;29;20461;-75
2023/12/10 16:34:09;;;;;;;19.85;6.93;;;;;;;8.88;100.00;99889.50;4791797;29;20458;-75
2023/12/10 16:36:35;;;;;;;29.58;6.60;;;;;;;8.95;100.00;99872.78;4806432;29;20042;-75
2023/12/10 16:39:00;;;;;;;20.92;6.50;;;;;;;8.95;100.00;99881.16;4792065;29;20102;-75
2023/12/10 16:41:25;;;;;;;20.45;7.68;;;;;;;8.96;100.00;99873.63;4791184;29;20421;-74
2023/12/10 16:43:51;;;;;;;26.73;9.05;;;;;;;8.91;100.00;99868.41;4794096;29;20194;-74
2023/12/10 16:46:17;;;;;;;26.70;6.85;;;;;;;8.93;100.00;99860.44;4791054;29;20031;-74
2023/12/10 16:48:42;;;;;;;27.08;6.72;;;;;;;8.93;100.00;99850.06;4797620;29;20074;-74
2023/12/10 16:51:07;;;;;;;23.30;5.85;;;;;;;8.94;100.00;99850.88;4787270;29;20035;-74
2023/12/10 16:53:33;;;;;;;22.45;5.43;;;;;;;8.97;100.00;99844.50;4794213;29;20411;-74
2023/12/10 16:55:58;;;;;;;17.73;4.82;;;;;;;8.98;100.00;99839.72;4795021;29;20050;-75
2023/12/10 16:58:24;;;;;;;19.38;5.30;;;;;;;8.99;100.00;99819.78;4794100;29;20499;-74